SBSN

Details ICAO SBSN (STM)
Name SANTAREM
Region Brazil
Timezone America/Santarem (UTC-3.0)
Plans Departing 54
Arriving 72
Stats Elevation 198 ft / 60 m (AMSL)
Location -2.422430° -54.792788°
Runways 1
Magnetic Variation 18.380° W
Sunrise 2018-05-26 09:37:50 UTC / 2018-05-26 06:37:50 Local
Sunset 2018-05-26 21:37:30 UTC / 2018-05-26 18:37:30 Local
Advertisement - Login to hide

Runways

ID Width Length Bearing (true) Bearing (mag) Surface Threshold Offset Overrun Length
10 148 ft / 45 m 7,873 ft / 2,400 m 80.69° 99.07° Asphalt 0 ft / 0 m 245 ft / 75 m
28 148 ft / 45 m 7,873 ft / 2,400 m 260.69° 279.07° Asphalt 0 ft / 0 m 202 ft / 62 m

Approach Navaids

Runway Type Ident Frequency Range Bearing (true) Bearing (mag) Slope Elevation
10 Localiser ISN 109.30 MHz 18 nm / 33 km 81.06° 99.43° - 198 ft / 60 m (AMSL)

Map

Weather


0- 5 10 15 20 25 30 35+ Temperature / ° C

Clouds and Precipitation
Forecast for 2018-05-26 18:00 UTC. Updated 2 hours ago

Ground ~20,000 ft ~40,000 ft Winds

METAR

SBSN 261900Z 06004KT 9999 FEW025 30/25 Q1009

TAF

TAF SBSN 261600Z 2618/2718 07005KT 9999 SCT025 TX31/2619Z TN23/2709Z BECMG 2619/2621 12002KT FEW025TCU BECMG 2623/2701 CAVOK BECMG 2703/2705 15002KT 9999 FEW015 BECMG 2707/2709 15005KT BECMG 2711/2713 06010KT BECMG 2715/2717 11010KT SCT025 RMK PDY

Frequencies

Tower 118.10 MHz TWR
Approach 131.40 MHz APP
Approach 119.30 MHz APP
Warning: Do not use this data for real-world aviation or navigation. No guarantee of current accuracy is given.